Cuzzart, West Virginia
Current Conditions -  °F | °C
As of 3:53 PM on Thursday 27 Nov 2014 (Local Time) from KMGW Reporting Station
Overcast Overcast  
Wind Chill: 27°   Ceiling: 4100
Heat Index: 34°   Visibility: 9mi
Dew Point: 24°   Wind: 9mph
Humidity: 67%   Direction: 290°WNW
Pressure: 30.12"   Gusts: NA
Location:  39.6431°N, 79.6244°W
Report Text: KMGW 272053Z 29008KT 9SM OVC041 01/M04 A3012 RMK AO2 SLP210 T00111044 53014
Loading
Personal Weather Stations






























Interactive Weather Map New forecast layout! Learn more

10-Day Weather Forecast

Advertisements
Track Severe Weather on mobile